Estación Meteorológica Peña el Pijo (Robertgarden) [ 05/25/18 12:59:05 CEST ]

Fecha Hora Presion(HPa) Temp (°C) Humedad % Rocio (°C) Viento ( m/s) Direccion Lluvia 1Hora(mm) Lluvia 24H(mm) LLuvia Total(mm)
2018-May-06 01:01:57 1009.100 10.5 73 5.9         205.12
2018-May-06 02:01:39 1009.100 9.6 76 5.5         205.12
2018-May-06 03:01:44 1008.600 9.8 78 6.1         205.12
2018-May-06 04:01:44 1008.500 9.1 79 5.6         205.12
2018-May-06 05:01:41 1008.200 9.1 81 6.0         205.12
2018-May-06 06:01:39 1008.000 9.3 81 6.2         205.12
2018-May-06 07:01:53 1008.200 8.5 81 5.4         205.12
2018-May-06 08:01:50 1008.500 8.5 84 5.9         205.12
2018-May-06 09:02:09 1008.700 11.0 81 7.9         205.12
2018-May-06 10:01:45 1008.900 12.8 77 8.8         205.12
2018-May-06 11:01:46 1008.800 15.9 65 9.3         205.12
2018-May-06 12:01:47 1008.300 19.9 47 8.2 1.5 ENE     205.12
2018-May-06 13:01:46 1008.300 17.9 48 6.7         205.12
2018-May-06 14:01:49 1008.100 17.9 48 6.7         205.12
2018-May-06 15:02:05 1007.600 19.6 43 6.6         205.12
2018-May-06 16:01:46 1007.400 19.6 43 6.6 0.7 SE     205.12
2018-May-06 17:01:46 1006.900 18.9 40 5.0         205.12
2018-May-06 18:01:38 1006.500 21.1 36 5.3 5.1 S     205.12
2018-May-06 19:02:03 1006.600 19.1 45 6.8         205.12
2018-May-06 20:01:44 1006.900 16.3 53 6.7         205.12
2018-May-06 21:02:02 1007.700 14.8 59 6.9         205.12
2018-May-06 22:01:33 1008.000 12.6 66 6.4         205.12
2018-May-06 23:01:41 1008.200 11.1 70 5.9         205.12

Temperatura Máxima:21°    Temperatura Mínima:
Presión Máxima:1009.100 Hpa    Presión Mínima:1006.500 Hpa


Volver